Black Star — 9HA2911 — position and weather

sailwx.info

Track history (hours):
 
Tides and Currents Weather Stations Pressure Air Temp Water Temp Dewpoint Dewpoint Depression Visibility Wind Speed Wind Dir Waves Ship Positions

Black Star

Last reported at 2016-Feb-07 21:16 UTC. Time now 2016-Feb-12 20:24 UTC.
Position N 36°13' E 014°44'.

Length 128 m; draft 7.7 m.

Type: Ship (hazmat cat B). MMSI: 256714000.

Date/timePositionNaut miles runAvg speedWind from/ knotsBaromVisibWave heightAir tempDewpointWater temp
2016-Feb-07 21:16N 36°13' E 014°44'811.5
2016-Feb-07 20:33N 36°17' E 014°34'1211.6
2016-Feb-07 19:33N 36°21' E 014°21'1111.3
2016-Feb-07 18:32N 36°25' E 014°08'1211.6
2016-Feb-07 17:29N 36°30' E 013°53'  
2016-Feb-05 07:07N 36°43' E 000°01'25911.0
2016-Feb-04 07:33N 36°01' W 005°16'10 9.6
2016-Feb-04 06:32N 36°09' W 005°23'2 0.1
2016-Feb-03 02:10N 36°11' W 005°24'2 0.9
2016-Feb-03 00:27N 36°09' W 005°24'8 8.4
2016-Feb-02 23:33N 36°02' W 005°22'8812.6
2016-Feb-02 16:33N 36°05' W 007°12'1312.8
2016-Feb-02 15:33N 36°09' W 007°27'1312.7
2016-Feb-02 14:33N 36°12' W 007°42'1312.5
2016-Feb-02 13:33N 36°14' W 007°57'1312.9
2016-Feb-02 12:31N 36°17' W 008°14'1713.0
2016-Feb-02 11:14N 36°21' W 008°34'811.7
2016-Feb-02 10:31N 36°23' W 008°44'1212.5
2016-Feb-02 09:31N 36°26' W 008°59'2311.1
2016-Feb-02 07:27N 36°35' W 009°25'1011.3
2016-Feb-02 06:32N 36°43' W 009°34'1111.4
2016-Feb-02 05:33N 36°52' W 009°41'1211.6
2016-Feb-02 04:33N 37°04' W 009°44'1211.7
2016-Feb-02 03:33N 37°15' W 009°48'1211.9
2016-Feb-02 02:33N 37°27' W 009°50'1211.6
2016-Feb-02 01:32N 37°38' W 009°53'1211.7
2016-Feb-02 00:30N 37°50' W 009°56'1212.1
2016-Feb-01 23:32N 38°02' W 009°59'1212.0
2016-Feb-01 22:33N 38°13' W 010°02'1211.9
2016-Feb-01 21:33N 38°25' W 010°06'1211.8
2016-Feb-01 20:33N 38°36' W 010°10'1211.9
2016-Feb-01 19:33N 38°48' W 010°13'1211.7
2016-Feb-01 18:33N 38°59' W 010°13'1412.9
2016-Feb-01 17:28N 39°13' W 010°13'1111.7
2016-Feb-01 16:31N 39°24' W 010°13'1211.4
2016-Feb-01 15:28N 39°37' W 010°13'1112.2
2016-Feb-01 14:33N 39°48' W 010°13'1413.2
2016-Feb-01 13:31N 40°01' W 010°13'1211.7
2016-Feb-01 12:31N 40°13' W 010°13'1211.9
2016-Feb-01 11:31N 40°25' W 010°13'1111.3
2016-Feb-01 10:31N 40°36' W 010°12'1212.2
2016-Feb-01 09:33N 40°48' W 010°12'1412.8
2016-Feb-01 08:25N 41°03' W 010°12'1011.2
2016-Feb-01 07:33N 41°12' W 010°12'1312.4
2016-Feb-01 06:31N 41°25' W 010°12'1211.9
2016-Feb-01 05:31N 41°37' W 010°11'1211.6
2016-Feb-01 04:31N 41°49' W 010°11'1111.0
2016-Feb-01 03:34N 41°59' W 010°11'  
Track history (hours):
 
Tides and Currents Weather Stations Pressure Air Temp Water Temp Dewpoint Dewpoint Depression Visibility Wind Speed Wind Dir Waves Ship Positions

Black Star

Last reported at 2016-Feb-07 21:16 UTC. Time now 2016-Feb-12 20:24 UTC.
Position N 36°13' E 014°44'.

Length 128 m; draft 7.7 m.

Type: Ship (hazmat cat B). MMSI: 256714000.

Date/timePositionNaut miles runAvg speedWind from/ knotsBaromVisibWave heightAir tempDewpointWater temp
2016-Feb-07 21:16N 36°13' E 014°44'811.5
2016-Feb-07 20:33N 36°17' E 014°34'1211.6
2016-Feb-07 19:33N 36°21' E 014°21'1111.3
2016-Feb-07 18:32N 36°25' E 014°08'1211.6
2016-Feb-07 17:29N 36°30' E 013°53'  
2016-Feb-05 07:07N 36°43' E 000°01'25911.0
2016-Feb-04 07:33N 36°01' W 005°16'10 9.6
2016-Feb-04 06:32N 36°09' W 005°23'2 0.1
2016-Feb-03 02:10N 36°11' W 005°24'2 0.9
2016-Feb-03 00:27N 36°09' W 005°24'8 8.4
2016-Feb-02 23:33N 36°02' W 005°22'8812.6
2016-Feb-02 16:33N 36°05' W 007°12'1312.8
2016-Feb-02 15:33N 36°09' W 007°27'1312.7
2016-Feb-02 14:33N 36°12' W 007°42'1312.5
2016-Feb-02 13:33N 36°14' W 007°57'1312.9
2016-Feb-02 12:31N 36°17' W 008°14'1713.0
2016-Feb-02 11:14N 36°21' W 008°34'811.7
2016-Feb-02 10:31N 36°23' W 008°44'1212.5
2016-Feb-02 09:31N 36°26' W 008°59'2311.1
2016-Feb-02 07:27N 36°35' W 009°25'1011.3
2016-Feb-02 06:32N 36°43' W 009°34'1111.4
2016-Feb-02 05:33N 36°52' W 009°41'1211.6
2016-Feb-02 04:33N 37°04' W 009°44'1211.7
2016-Feb-02 03:33N 37°15' W 009°48'1211.9
2016-Feb-02 02:33N 37°27' W 009°50'1211.6
2016-Feb-02 01:32N 37°38' W 009°53'1211.7
2016-Feb-02 00:30N 37°50' W 009°56'1212.1
2016-Feb-01 23:32N 38°02' W 009°59'1212.0
2016-Feb-01 22:33N 38°13' W 010°02'1211.9
2016-Feb-01 21:33N 38°25' W 010°06'1211.8
2016-Feb-01 20:33N 38°36' W 010°10'1211.9
2016-Feb-01 19:33N 38°48' W 010°13'1211.7
2016-Feb-01 18:33N 38°59' W 010°13'1412.9
2016-Feb-01 17:28N 39°13' W 010°13'1111.7
2016-Feb-01 16:31N 39°24' W 010°13'1211.4
2016-Feb-01 15:28N 39°37' W 010°13'1112.2
2016-Feb-01 14:33N 39°48' W 010°13'1413.2
2016-Feb-01 13:31N 40°01' W 010°13'1211.7
2016-Feb-01 12:31N 40°13' W 010°13'1211.9
2016-Feb-01 11:31N 40°25' W 010°13'1111.3
2016-Feb-01 10:31N 40°36' W 010°12'1212.2
2016-Feb-01 09:33N 40°48' W 010°12'1412.8
2016-Feb-01 08:25N 41°03' W 010°12'1011.2
2016-Feb-01 07:33N 41°12' W 010°12'1312.4
2016-Feb-01 06:31N 41°25' W 010°12'1211.9
2016-Feb-01 05:31N 41°37' W 010°11'1211.6
2016-Feb-01 04:31N 41°49' W 010°11'1111.0
2016-Feb-01 03:34N 41°59' W 010°11'  

Dump ship's entire track history